Time;durP1;ratioP1;P1;durP2;ratioP2;P2;SDS_P1;SDS_P2;PMS_P1;PMS_P2;Temp;Humidity;BMP_temperature;BMP_pressure;BME280_temperature;BME280_humidity;BME280_pressure;Samples;Min_cycle;Max_cycle;Signal;HPM_P1;HPM_P2
2021/04/27 00:01:49;;;;;;;4.20;2.50;;;7.60;65.90;;;;;;4240427;27;20068;-73
2021/04/27 00:03:50;;;;;;;6.43;3.37;;;7.50;65.60;;;;;;4239723;27;20536;-72
2021/04/27 00:05:51;;;;;;;5.90;3.10;;;7.50;65.70;;;;;;4238630;27;20031;-71
2021/04/27 00:07:52;;;;;;;4.70;2.63;;;7.50;65.90;;;;;;4239151;27;20055;-77
2021/04/27 00:09:54;;;;;;;7.77;2.77;;;7.50;66.10;;;;;;4240415;27;20475;-76
2021/04/27 00:11:55;;;;;;;3.90;2.80;;;7.50;66.00;;;;;;4239886;27;20031;-72
2021/04/27 00:13:56;;;;;;;6.63;2.97;;;7.50;66.10;;;;;;4240543;27;20059;-68
2021/04/27 00:15:57;;;;;;;5.20;2.97;;;7.50;66.20;;;;;;4238646;27;20652;-71
2021/04/27 00:17:59;;;;;;;4.13;2.30;;;7.50;66.10;;;;;;4240686;27;20035;-66
2021/04/27 00:20:00;;;;;;;4.60;2.83;;;7.50;66.10;;;;;;4239740;27;20031;-72
2021/04/27 00:22:01;;;;;;;6.40;3.30;;;7.50;66.00;;;;;;4239960;27;20050;-68
2021/04/27 00:24:04;;;;;;;7.13;2.87;;;7.50;66.10;;;;;;4239497;27;20453;-72
2021/04/27 00:26:05;;;;;;;6.00;3.07;;;7.50;66.00;;;;;;4239232;27;20083;-69
2021/04/27 00:28:06;;;;;;;5.13;2.63;;;7.50;66.10;;;;;;4237047;27;20099;-69
2021/04/27 00:30:08;;;;;;;5.00;2.93;;;7.50;66.40;;;;;;4239889;27;20088;-77
2021/04/27 00:32:10;;;;;;;6.77;3.63;;;7.50;66.70;;;;;;4237711;27;20080;-73
2021/04/27 00:34:11;;;;;;;6.80;3.53;;;7.50;67.10;;;;;;4239362;27;20051;-75
2021/04/27 00:36:12;;;;;;;6.13;3.23;;;7.40;67.30;;;;;;4240447;27;20112;-69
2021/04/27 00:38:13;;;;;;;9.33;4.17;;;7.40;67.60;;;;;;4239221;27;20479;-68
2021/04/27 00:40:16;;;;;;;7.87;4.10;;;7.30;67.90;;;;;;4240857;27;20448;-69
2021/04/27 00:42:27;;;;;;;6.30;3.80;;;7.30;68.20;;;;;;4239389;27;20019;-73
2021/04/27 00:44:28;;;;;;;10.57;3.17;;;7.30;68.60;;;;;;4240679;27;20023;-72
2021/04/27 00:46:29;;;;;;;7.70;3.33;;;7.30;68.70;;;;;;4237188;27;20099;-75
2021/04/27 00:48:30;;;;;;;8.77;3.97;;;7.30;69.00;;;;;;4240798;27;20032;-72
2021/04/27 00:50:35;;;;;;;9.50;4.23;;;7.30;69.30;;;;;;4238658;27;20124;-68
2021/04/27 00:52:37;;;;;;;8.00;4.10;;;7.20;69.80;;;;;;4238639;27;20031;-67
2021/04/27 00:54:38;;;;;;;8.67;3.63;;;7.20;70.20;;;;;;4238968;27;20088;-71
2021/04/27 00:56:39;;;;;;;9.13;4.10;;;7.20;70.70;;;;;;4240011;28;20080;-76
2021/04/27 00:58:40;;;;;;;9.07;3.63;;;7.10;71.40;;;;;;4237158;27;20039;-73
2021/04/27 01:00:42;;;;;;;5.13;2.90;;;7.00;71.70;;;;;;4239551;27;20047;-64
2021/04/27 01:02:45;;;;;;;8.93;4.03;;;7.00;72.10;;;;;;4238887;28;20023;-70
2021/04/27 01:04:46;;;;;;;8.00;3.70;;;6.90;72.70;;;;;;4239910;28;20023;-74
2021/04/27 01:06:49;;;;;;;7.47;3.93;;;6.90;73.70;;;;;;4239297;28;20019;-76
2021/04/27 01:09:04;;;;;;;9.00;4.20;;;6.80;74.30;;;;;;4239302;28;20680;-76
2021/04/27 01:11:20;;;;;;;7.90;4.23;;;6.80;74.70;;;;;;4239417;28;20134;-71
2021/04/27 01:13:45;;;;;;;12.03;4.27;;;6.80;75.30;;;;;;4239908;28;20487;-77
2021/04/27 01:15:47;;;;;;;8.50;3.80;;;6.80;76.60;;;;;;4239019;28;20104;-66
2021/04/27 01:17:50;;;;;;;8.83;3.30;;;6.80;76.10;;;;;;4240353;28;20076;-77
2021/04/27 01:20:10;;;;;;;8.33;4.17;;;6.80;76.30;;;;;;4239337;28;20019;-74
2021/04/27 01:22:19;;;;;;;9.15;4.07;;;6.70;76.60;;;;;;4239596;28;20255;-73
2021/04/27 01:24:28;;;;;;;7.67;3.87;;;6.70;78.00;;;;;;4237112;27;20039;-76
2021/04/27 01:26:42;;;;;;;11.27;4.97;;;6.70;78.40;;;;;;4239396;28;20031;-75
2021/04/27 01:28:44;;;;;;;9.27;4.53;;;6.70;78.40;;;;;;4238280;28;20255;-76
2021/04/27 01:30:46;;;;;;;11.20;5.00;;;6.70;78.40;;;;;;4239475;28;20035;-72
2021/04/27 01:32:47;;;;;;;13.47;6.17;;;6.70;78.80;;;;;;4238972;28;20326;-65
2021/04/27 01:34:49;;;;;;;10.80;5.10;;;6.70;79.20;;;;;;4238998;28;20073;-75
2021/04/27 01:36:52;;;;;;;11.40;5.27;;;6.70;80.00;;;;;;4239326;27;20332;-69
2021/04/27 01:38:54;;;;;;;15.43;7.33;;;6.70;79.90;;;;;;4238599;27;20372;-70
2021/04/27 01:40:56;;;;;;;15.13;5.93;;;6.70;79.90;;;;;;4240013;28;20762;-69
2021/04/27 01:43:01;;;;;;;22.23;8.03;;;6.70;80.40;;;;;;4238428;27;20035;-75
2021/04/27 01:45:03;;;;;;;12.83;5.97;;;6.70;81.10;;;;;;4238375;28;20287;-77
2021/04/27 01:47:06;;;;;;;8.20;4.03;;;6.60;81.50;;;;;;4238574;28;20023;-77
2021/04/27 01:49:08;;;;;;;8.93;3.87;;;6.60;81.50;;;;;;4239924;28;20035;-73
2021/04/27 01:51:11;;;;;;;7.63;3.50;;;6.60;82.60;;;;;;4238076;27;20036;-77
2021/04/27 01:53:14;;;;;;;10.00;3.70;;;6.50;84.00;;;;;;4239910;28;20023;-71
2021/04/27 01:55:16;;;;;;;7.37;3.97;;;6.50;85.40;;;;;;4238040;28;20039;-75
2021/04/27 01:57:18;;;;;;;10.43;4.43;;;6.40;85.30;;;;;;4239598;28;20023;-72
2021/04/27 01:59:20;;;;;;;8.53;4.00;;;6.40;85.80;;;;;;4238209;27;20135;-75
2021/04/27 02:01:21;;;;;;;12.07;4.00;;;6.40;86.00;;;;;;4239038;28;20736;-76
2021/04/27 02:03:22;;;;;;;8.70;3.50;;;6.40;86.50;;;;;;4237988;28;20665;-77
2021/04/27 02:05:23;;;;;;;9.33;4.03;;;6.40;86.80;;;;;;4239692;28;20406;-75
2021/04/27 02:07:25;;;;;;;13.00;4.97;;;6.40;87.30;;;;;;4238163;27;20248;-68
2021/04/27 02:09:27;;;;;;;9.53;4.23;;;6.40;88.30;;;;;;4238720;28;20260;-73
2021/04/27 02:11:33;;;;;;;8.23;3.90;;;6.30;88.80;;;;;;4239892;27;20131;-74
2021/04/27 02:13:34;;;;;;;5.90;4.00;;;6.30;89.70;;;;;;4241727;27;20259;-73
2021/04/27 02:15:36;;;;;;;13.63;4.70;;;6.30;90.00;;;;;;4240315;27;20328;-69
2021/04/27 02:17:42;;;;;;;14.47;6.17;;;6.20;90.50;;;;;;4241463;27;20019;-70
2021/04/27 02:19:45;;;;;;;15.53;7.17;;;6.20;91.10;;;;;;4242759;27;20264;-73
2021/04/27 02:21:46;;;;;;;16.77;6.33;;;6.20;91.50;;;;;;4240013;27;20267;-73
2021/04/27 02:23:48;;;;;;;13.90;6.20;;;6.10;92.00;;;;;;4242177;27;20271;-76
2021/04/27 02:25:52;;;;;;;12.23;6.17;;;6.10;92.40;;;;;;4240705;27;20483;-71
2021/04/27 02:27:54;;;;;;;11.87;6.80;;;6.10;93.10;;;;;;4242654;27;20264;-75
2021/04/27 02:29:55;;;;;;;17.27;6.57;;;6.00;93.40;;;;;;4241058;27;20340;-73
2021/04/27 02:31:58;;;;;;;17.47;7.37;;;6.00;93.60;;;;;;4242652;27;20263;-74
2021/04/27 02:34:05;;;;;;;14.67;7.73;;;6.00;93.70;;;;;;4241032;27;20325;-76
2021/04/27 02:36:08;;;;;;;18.63;7.33;;;6.10;93.80;;;;;;4242343;27;20305;-74
2021/04/27 02:38:11;;;;;;;10.03;4.93;;;6.10;93.60;;;;;;4240849;27;20834;-73
2021/04/27 02:40:14;;;;;;;12.23;5.27;;;6.10;93.50;;;;;;4242566;27;20316;-75
2021/04/27 02:42:15;;;;;;;9.77;4.33;;;6.10;93.50;;;;;;4239697;27;20631;-70
2021/04/27 02:44:17;;;;;;;6.97;3.93;;;6.10;93.90;;;;;;4241194;27;20653;-72
2021/04/27 02:46:19;;;;;;;5.07;2.70;;;5.90;94.60;;;;;;4241094;27;20672;-74
2021/04/27 02:48:31;;;;;;;5.93;2.90;;;5.70;96.30;;;;;;4241725;27;20312;-74
2021/04/27 02:50:33;;;;;;;6.37;2.70;;;5.50;97.50;;;;;;4241008;27;20287;-71
2021/04/27 02:52:35;;;;;;;5.73;2.43;;;5.30;98.40;;;;;;4241248;27;20815;-73
2021/04/27 02:54:36;;;;;;;5.00;2.67;;;5.10;98.40;;;;;;4241836;27;20356;-72
2021/04/27 02:56:37;;;;;;;4.53;2.67;;;5.00;98.70;;;;;;4240674;27;20275;-74
2021/04/27 02:58:38;;;;;;;4.77;2.43;;;5.10;98.50;;;;;;4239913;27;20279;-72
2021/04/27 03:00:40;;;;;;;6.10;3.07;;;5.00;98.70;;;;;;4239208;27;20333;-76
2021/04/27 03:02:41;;;;;;;6.77;2.80;;;5.00;98.90;;;;;;4241620;27;20263;-74
2021/04/27 03:04:42;;;;;;;6.13;2.90;;;5.00;98.90;;;;;;4241153;27;20321;-71
2021/04/27 03:06:44;;;;;;;8.07;4.30;;;5.00;98.60;;;;;;4241884;27;20263;-75
2021/04/27 03:08:45;;;;;;;7.33;3.87;;;5.00;98.40;;;;;;4238166;27;20316;-75
2021/04/27 03:10:47;;;;;;;9.03;3.17;;;5.00;98.50;;;;;;4240822;27;20259;-71
2021/04/27 03:12:48;;;;;;;9.77;3.53;;;5.10;98.40;;;;;;4240184;27;20256;-67
2021/04/27 03:14:49;;;;;;;9.23;3.47;;;5.10;98.50;;;;;;4241135;27;20962;-73
2021/04/27 03:16:50;;;;;;;10.00;3.43;;;5.10;98.50;;;;;;4239772;27;20259;-60
2021/04/27 03:18:52;;;;;;;7.67;4.30;;;5.10;98.60;;;;;;4240864;27;20271;-75
2021/04/27 03:20:53;;;;;;;16.87;4.73;;;5.20;98.80;;;;;;4240372;27;20658;-69
2021/04/27 03:22:54;;;;;;;10.93;5.13;;;5.20;98.90;;;;;;4240369;27;20263;-74
2021/04/27 03:24:55;;;;;;;9.73;3.83;;;5.20;98.90;;;;;;4238966;27;20344;-72
2021/04/27 03:26:56;;;;;;;7.97;4.00;;;5.30;99.10;;;;;;4240331;27;20332;-68
2021/04/27 03:28:57;;;;;;;15.13;4.23;;;5.30;99.00;;;;;;4241586;27;20296;-72
2021/04/27 03:30:59;;;;;;;12.97;4.37;;;5.30;99.10;;;;;;4232150;27;20291;-76
2021/04/27 03:33:00;;;;;;;8.03;3.90;;;5.40;99.00;;;;;;4224198;28;20305;-68
2021/04/27 03:35:01;;;;;;;9.70;4.23;;;5.40;99.00;;;;;;4238820;27;20306;-72
2021/04/27 03:37:02;;;;;;;12.07;4.87;;;5.50;98.90;;;;;;4241059;27;20601;-75
2021/04/27 03:39:03;;;;;;;9.43;3.83;;;5.70;98.70;;;;;;4239061;27;20279;-73
2021/04/27 03:41:05;;;;;;;9.00;4.20;;;5.80;98.90;;;;;;4241258;27;20271;-72
2021/04/27 03:43:07;;;;;;;12.20;4.73;;;6.00;98.30;;;;;;4239438;27;20778;-67
2021/04/27 03:45:12;;;;;;;13.47;4.07;;;6.30;98.10;;;;;;4225139;27;20314;-73
2021/04/27 03:47:13;;;;;;;9.80;4.50;;;6.40;97.80;;;;;;4222402;28;20256;-70
2021/04/27 03:49:14;;;;;;;9.10;3.50;;;6.50;97.50;;;;;;4223622;28;20256;-72
2021/04/27 03:51:16;;;;;;;8.93;4.10;;;6.80;97.00;;;;;;4221949;28;20561;-68
2021/04/27 03:53:17;;;;;;;8.13;3.33;;;6.90;96.50;;;;;;4222826;28;20264;-63
2021/04/27 03:55:18;;;;;;;7.77;3.73;;;7.10;95.70;;;;;;4222943;28;20855;-71
2021/04/27 03:57:20;;;;;;;11.97;3.50;;;7.40;95.10;;;;;;4226292;27;20313;-60
2021/04/27 03:59:22;;;;;;;11.30;4.13;;;7.80;94.30;;;;;;4232800;27;20280;-66
2021/04/27 04:01:23;;;;;;;13.40;4.70;;;8.30;93.00;;;;;;4222432;28;20430;-67
2021/04/27 04:03:24;;;;;;;10.30;3.57;;;8.60;91.60;;;;;;4223155;28;20040;-61
2021/04/27 04:05:25;;;;;;;8.80;3.70;;;8.90;90.20;;;;;;4221775;28;20452;-71
2021/04/27 04:07:26;;;;;;;5.70;3.20;;;9.30;88.10;;;;;;4223346;28;20028;-66
2021/04/27 04:09:27;;;;;;;5.57;3.37;;;9.70;85.80;;;;;;4221769;28;20487;-74
2021/04/27 04:11:34;;;;;;;7.00;3.77;;;10.10;83.60;;;;;;4222051;28;20092;-71
2021/04/27 04:13:35;;;;;;;11.20;3.40;;;10.60;81.40;;;;;;4221847;28;20475;-67
2021/04/27 04:15:36;;;;;;;12.00;4.00;;;10.90;79.90;;;;;;4223267;28;20039;-75
2021/04/27 04:17:39;;;;;;;7.60;3.50;;;11.10;79.30;;;;;;4222028;28;20044;-69
2021/04/27 04:19:40;;;;;;;9.33;3.63;;;11.30;78.30;;;;;;4222766;28;20101;-66
2021/04/27 04:21:43;;;;;;;6.10;3.57;;;11.60;77.50;;;;;;4221842;28;20077;-74
2021/04/27 04:23:46;;;;;;;7.07;4.57;;;11.80;75.60;;;;;;4229029;27;20076;-74
2021/04/27 04:25:47;;;;;;;16.07;4.43;;;12.00;74.70;;;;;;4238541;27;20019;-68
2021/04/27 04:27:48;;;;;;;14.97;4.00;;;12.40;73.60;;;;;;4237335;27;20039;-67
2021/04/27 04:29:49;;;;;;;14.80;4.53;;;12.70;70.90;;;;;;4235507;27;20090;-69
2021/04/27 04:31:51;;;;;;;11.03;3.57;;;12.40;67.90;;;;;;4238020;27;20762;-68
2021/04/27 04:33:52;;;;;;;25.10;6.03;;;11.80;66.70;;;;;;4240011;27;20454;-67
2021/04/27 04:35:53;;;;;;;20.13;4.93;;;11.80;68.90;;;;;;4238097;27;20043;-69
2021/04/27 04:37:55;;;;;;;19.67;5.47;;;12.40;67.80;;;;;;4240143;27;20115;-64
2021/04/27 04:39:56;;;;;;;17.00;4.23;;;13.00;66.30;;;;;;4232849;27;20088;-66
2021/04/27 04:41:57;;;;;;;13.47;4.27;;;13.30;64.70;;;;;;4222837;28;20068;-69
2021/04/27 04:43:58;;;;;;;9.00;4.73;;;13.90;63.10;;;;;;4222135;27;20031;-64
2021/04/27 04:45:59;;;;;;;15.67;5.13;;;14.30;62.00;;;;;;4227725;27;21195;-69
2021/04/27 04:48:00;;;;;;;19.20;5.13;;;14.60;61.00;;;;;;4228397;27;20039;-69
2021/04/27 04:50:03;;;;;;;15.03;4.43;;;14.90;60.40;;;;;;4222129;28;20047;-71
2021/04/27 04:52:04;;;;;;;17.40;4.70;;;14.90;60.00;;;;;;4222188;28;20563;-67
2021/04/27 04:54:05;;;;;;;11.00;4.10;;;14.80;59.60;;;;;;4226535;27;20091;-68
2021/04/27 04:56:08;;;;;;;22.77;6.03;;;14.60;59.70;;;;;;4237823;27;20104;-67
2021/04/27 04:58:09;;;;;;;16.17;4.77;;;14.30;59.80;;;;;;4238371;28;20378;-67
2021/04/27 05:00:14;;;;;;;15.63;5.20;;;14.20;60.30;;;;;;4236865;28;20815;-73
2021/04/27 05:02:15;;;;;;;17.97;4.60;;;14.20;60.00;;;;;;4238431;28;20080;-72
2021/04/27 05:04:16;;;;;;;17.30;4.70;;;14.70;59.40;;;;;;4239475;28;20023;-76
2021/04/27 05:06:18;;;;;;;16.87;4.40;;;15.20;58.60;;;;;;4238315;28;20103;-76
2021/04/27 05:08:24;;;;;;;11.43;4.50;;;15.70;57.70;;;;;;4239301;27;20131;-70
2021/04/27 05:10:25;;;;;;;20.77;4.73;;;15.80;56.90;;;;;;4238115;28;20061;-74
2021/04/27 05:12:26;;;;;;;28.07;6.03;;;16.00;56.10;;;;;;4239915;28;20079;-76
2021/04/27 05:14:29;;;;;;;17.17;5.50;;;16.30;55.60;;;;;;4238530;27;20043;-67
2021/04/27 05:16:30;;;;;;;24.97;6.53;;;15.60;55.40;;;;;;4239851;28;20084;-75
2021/04/27 05:18:33;;;;;;;16.83;4.87;;;15.40;56.00;;;;;;4238250;28;20444;-72
2021/04/27 05:20:34;;;;;;;17.73;5.97;;;15.40;55.70;;;;;;4239702;28;20035;-73
2021/04/27 05:22:36;;;;;;;16.90;4.97;;;15.30;55.80;;;;;;4237906;28;20084;-73
2021/04/27 05:24:38;;;;;;;17.13;5.00;;;15.40;55.40;;;;;;4239257;28;20540;-67
2021/04/27 05:26:40;;;;;;;24.90;5.33;;;15.60;54.80;;;;;;4238268;27;20039;-66
2021/04/27 05:28:41;;;;;;;16.97;4.77;;;16.00;54.00;;;;;;4239001;28;20080;-74
2021/04/27 05:30:42;;;;;;;12.33;3.87;;;15.50;53.30;;;;;;4238122;28;20549;-76
2021/04/27 05:32:43;;;;;;;12.23;4.60;;;15.10;53.30;;;;;;4238579;28;20031;-69
2021/04/27 05:34:44;;;;;;;11.27;4.23;;;14.30;53.70;;;;;;4238743;27;20117;-74
2021/04/27 05:36:46;;;;;;;11.13;4.43;;;13.60;54.40;;;;;;4238455;27;20043;-73
2021/04/27 05:38:47;;;;;;;11.47;4.53;;;13.30;55.20;;;;;;4239618;28;20264;-76
2021/04/27 05:40:48;;;;;;;15.23;5.47;;;13.30;56.00;;;;;;4238308;28;20080;-76
2021/04/27 05:42:49;;;;;;;8.60;4.43;;;13.30;56.00;;;;;;4239926;28;20031;-76
2021/04/27 05:44:51;;;;;;;17.80;4.97;;;13.10;56.20;;;;;;4237375;28;20027;-71
2021/04/27 05:46:52;;;;;;;12.03;3.87;;;12.80;56.50;;;;;;4242026;27;20092;-71
2021/04/27 05:48:53;;;;;;;7.63;3.80;;;12.40;56.60;;;;;;4241351;27;20468;-72
2021/04/27 05:50:54;;;;;;;10.60;3.33;;;12.00;56.90;;;;;;4242343;27;20051;-71
2021/04/27 05:52:55;;;;;;;11.87;3.87;;;11.60;57.30;;;;;;4241557;27;20468;-67
2021/04/27 05:54:56;;;;;;;8.70;3.30;;;11.20;58.10;;;;;;4241217;27;20171;-76
2021/04/27 05:56:58;;;;;;;12.83;3.47;;;11.20;58.20;;;;;;4239771;27;20040;-64
2021/04/27 05:58:59;;;;;;;16.80;4.03;;;11.20;58.50;;;;;;4242174;27;20043;-69
2021/04/27 06:01:00;;;;;;;14.60;4.57;;;11.10;59.10;;;;;;4241553;27;20060;-63
2021/04/27 06:03:01;;;;;;;11.47;4.03;;;11.00;59.60;;;;;;4241754;27;20031;-72
2021/04/27 06:05:03;;;;;;;11.77;5.00;;;10.70;59.90;;;;;;4241797;27;20027;-68
2021/04/27 06:07:05;;;;;;;13.53;4.40;;;10.40;60.70;;;;;;4240975;27;20119;-74
2021/04/27 06:09:08;;;;;;;15.80;4.33;;;10.10;61.70;;;;;;4241869;27;20654;-72
2021/04/27 06:11:09;;;;;;;17.30;4.33;;;10.00;62.20;;;;;;4240974;27;20433;-72
2021/04/27 06:13:10;;;;;;;13.43;4.30;;;9.80;62.60;;;;;;4242262;27;20107;-67
2021/04/27 06:15:12;;;;;;;13.77;4.83;;;9.70;62.90;;;;;;4240783;27;20042;-72
2021/04/27 06:17:13;;;;;;;9.93;4.80;;;9.80;62.90;;;;;;4242615;27;20027;-72
2021/04/27 06:19:15;;;;;;;13.43;4.37;;;10.00;63.00;;;;;;4241092;27;20031;-74
2021/04/27 06:21:16;;;;;;;14.90;4.83;;;10.20;62.70;;;;;;4242144;27;20039;-75
2021/04/27 06:23:17;;;;;;;12.93;4.77;;;10.30;62.70;;;;;;4240284;27;20039;-76
2021/04/27 06:25:18;;;;;;;10.30;4.87;;;10.40;63.30;;;;;;4241601;27;20155;-72
2021/04/27 06:27:19;;;;;;;8.70;4.87;;;10.60;62.90;;;;;;4240780;27;20076;-72
2021/04/27 06:29:20;;;;;;;10.20;4.47;;;10.60;62.80;;;;;;4242447;27;20079;-75
2021/04/27 06:31:21;;;;;;;8.47;4.07;;;10.70;62.70;;;;;;4240148;27;20023;-69
2021/04/27 06:33:23;;;;;;;11.80;5.33;;;10.60;63.10;;;;;;4241948;27;20027;-77
2021/04/27 06:35:25;;;;;;;14.17;4.57;;;10.60;62.80;;;;;;4240723;27;20046;-72
2021/04/27 06:37:27;;;;;;;16.40;6.27;;;10.90;62.70;;;;;;4240731;27;20043;-69
2021/04/27 06:39:28;;;;;;;13.10;4.13;;;11.10;62.00;;;;;;4241165;27;21610;-76
2021/04/27 06:41:32;;;;;;;5.53;2.97;;;11.10;61.80;;;;;;4240284;27;20040;-70
2021/04/27 06:43:34;;;;;;;7.17;3.10;;;11.20;61.70;;;;;;4242228;27;20039;-71
2021/04/27 06:45:35;;;;;;;7.47;2.80;;;11.10;62.00;;;;;;4240679;27;20386;-73
2021/04/27 06:47:36;;;;;;;6.67;2.50;;;11.40;61.90;;;;;;4241700;27;20158;-73
2021/04/27 06:49:38;;;;;;;5.50;2.70;;;11.50;60.60;;;;;;4240487;27;20019;-76
2021/04/27 06:51:39;;;;;;;4.50;2.87;;;11.20;60.00;;;;;;4241645;27;20089;-74
2021/04/27 06:53:40;;;;;;;4.40;3.07;;;11.20;59.70;;;;;;4240467;27;20031;-76
2021/04/27 06:55:41;;;;;;;4.67;3.40;;;11.20;59.60;;;;;;4241566;27;20100;-77
2021/04/27 06:57:42;;;;;;;5.70;2.60;;;11.30;59.00;;;;;;4238916;27;20092;-76
2021/04/27 06:59:43;;;;;;;5.13;2.43;;;11.30;58.50;;;;;;4239866;27;20088;-69
2021/04/27 07:01:45;;;;;;;4.53;2.67;;;11.30;58.50;;;;;;4239882;27;20042;-76
2021/04/27 07:03:48;;;;;;;3.30;2.20;;;11.30;58.20;;;;;;4241166;27;20076;-76
2021/04/27 07:05:49;;;;;;;5.57;2.40;;;11.10;58.40;;;;;;4240372;27;20075;-65
2021/04/27 07:07:52;;;;;;;5.83;2.93;;;11.00;58.40;;;;;;4240859;27;20297;-77
2021/04/27 07:09:53;;;;;;;5.00;2.73;;;10.90;58.70;;;;;;4240231;27;20103;-75
2021/04/27 07:11:54;;;;;;;5.70;3.00;;;10.70;57.70;;;;;;4240333;27;20368;-69
2021/04/27 07:13:55;;;;;;;4.83;2.10;;;10.50;58.40;;;;;;4241444;27;20532;-73
2021/04/27 07:15:56;;;;;;;6.43;3.23;;;10.40;57.70;;;;;;4240157;27;20100;-68
2021/04/27 07:17:57;;;;;;;3.30;2.00;;;10.30;57.00;;;;;;4241200;27;20132;-75
2021/04/27 07:19:58;;;;;;;7.90;3.50;;;10.30;56.40;;;;;;4239602;27;20084;-72
2021/04/27 07:21:59;;;;;;;10.33;2.90;;;10.30;57.20;;;;;;4241238;27;20043;-69
2021/04/27 07:24:01;;;;;;;6.23;2.97;;;10.30;57.90;;;;;;4239972;27;20072;-73
2021/04/27 07:26:04;;;;;;;4.57;2.70;;;10.30;57.60;;;;;;4241330;27;20108;-76
2021/04/27 07:28:06;;;;;;;3.70;2.83;;;10.30;57.70;;;;;;4239345;27;20412;-75
2021/04/27 07:30:11;;;;;;;6.13;2.93;;;10.10;57.90;;;;;;4240831;27;20044;-72
2021/04/27 07:32:14;;;;;;;4.90;2.83;;;10.30;57.90;;;;;;4239448;27;20471;-74
2021/04/27 07:34:15;;;;;;;7.20;2.77;;;10.30;57.60;;;;;;4240988;27;20027;-75
2021/04/27 07:36:18;;;;;;;19.20;8.47;;;10.30;56.70;;;;;;4239619;27;20452;-76
2021/04/27 07:38:19;;;;;;;7.77;3.03;;;10.30;56.60;;;;;;4240623;27;20564;-72
2021/04/27 07:40:21;;;;;;;5.70;3.13;;;10.50;56.40;;;;;;4239627;27;20083;-73
2021/04/27 07:42:23;;;;;;;10.03;3.20;;;10.80;56.00;;;;;;4240349;27;20491;-74
2021/04/27 07:44:24;;;;;;;6.10;2.60;;;10.90;56.10;;;;;;4240059;27;20027;-68
2021/04/27 07:46:25;;;;;;;11.33;3.10;;;11.00;56.10;;;;;;4239697;27;20091;-75
2021/04/27 07:48:27;;;;;;;5.30;2.90;;;11.00;55.70;;;;;;4240261;27;20124;-71
2021/04/27 07:50:29;;;;;;;6.77;2.50;;;10.90;55.30;;;;;;4239262;27;20059;-69
2021/04/27 07:52:31;;;;;;;5.57;2.70;;;10.80;55.40;;;;;;4240808;27;20023;-72
2021/04/27 07:54:32;;;;;;;6.40;2.80;;;10.80;55.30;;;;;;4239052;27;20048;-74
2021/04/27 07:56:34;;;;;;;10.27;2.60;;;10.70;55.70;;;;;;4240520;27;20088;-73
2021/04/27 07:58:35;;;;;;;6.13;2.60;;;10.60;55.80;;;;;;4239320;27;20031;-71
2021/04/27 08:00:37;;;;;;;8.37;2.50;;;10.50;56.00;;;;;;4240591;27;20396;-73
2021/04/27 08:02:38;;;;;;;8.63;2.57;;;10.60;56.10;;;;;;4237479;27;20055;-65
2021/04/27 08:04:40;;;;;;;5.07;2.50;;;10.70;55.70;;;;;;4239845;27;20726;-69
2021/04/27 08:06:41;;;;;;;4.57;2.10;;;10.90;55.20;;;;;;4239206;27;20027;-70
2021/04/27 08:08:42;;;;;;;10.20;3.03;;;11.00;55.30;;;;;;4238437;27;20720;-75
2021/04/27 08:10:44;;;;;;;11.13;2.93;;;11.00;55.50;;;;;;4238864;27;20020;-68
2021/04/27 08:12:48;;;;;;;6.97;3.20;;;10.90;55.70;;;;;;4240198;27;20031;-72
2021/04/27 08:14:50;;;;;;;7.63;3.33;;;10.90;56.00;;;;;;4239529;27;20035;-72
2021/04/27 08:16:51;;;;;;;7.20;3.60;;;10.90;55.70;;;;;;4237665;27;20597;-76
2021/04/27 08:18:52;;;;;;;15.53;5.47;;;10.80;55.60;;;;;;4239537;27;20392;-74
2021/04/27 08:20:53;;;;;;;16.10;6.33;;;10.70;55.30;;;;;;4238927;27;20100;-77
2021/04/27 08:22:55;;;;;;;55.93;17.87;;;10.80;55.00;;;;;;4240004;27;20088;-74
2021/04/27 08:24:56;;;;;;;13.37;5.50;;;10.90;54.40;;;;;;4238859;27;20035;-75
2021/04/27 08:26:57;;;;;;;5.80;3.10;;;10.90;53.60;;;;;;4240195;27;20483;-75
2021/04/27 08:28:58;;;;;;;6.87;2.70;;;11.10;53.90;;;;;;4238684;27;20520;-65
2021/04/27 08:31:00;;;;;;;6.73;2.57;;;11.30;53.90;;;;;;4240340;27;20492;-70
2021/04/27 08:33:01;;;;;;;9.27;3.03;;;11.60;53.40;;;;;;4238667;27;20415;-74
2021/04/27 08:35:03;;;;;;;5.70;2.57;;;11.80;53.20;;;;;;4238889;27;20031;-73
2021/04/27 08:37:04;;;;;;;7.93;2.97;;;11.60;53.50;;;;;;4233911;27;20040;-74
2021/04/27 08:39:06;;;;;;;5.80;2.60;;;11.40;54.00;;;;;;4230194;27;20043;-74
2021/04/27 08:41:07;;;;;;;4.00;2.10;;;11.40;54.60;;;;;;4234238;27;20899;-72
2021/04/27 08:43:09;;;;;;;5.77;2.50;;;11.50;53.60;;;;;;4240217;27;20027;-60
2021/04/27 08:45:12;;;;;;;7.97;3.07;;;11.40;53.40;;;;;;4238917;27;20027;-70
2021/04/27 08:47:14;;;;;;;9.53;3.00;;;11.60;53.50;;;;;;4238646;27;20092;-74
2021/04/27 08:49:15;;;;;;;10.43;2.47;;;11.90;53.60;;;;;;4238813;27;20486;-69
2021/04/27 08:51:17;;;;;;;6.07;2.70;;;12.20;52.90;;;;;;4238519;27;20047;-69
2021/04/27 08:53:19;;;;;;;7.00;3.07;;;12.30;52.20;;;;;;4239801;27;20039;-70
2021/04/27 08:55:21;;;;;;;8.70;2.70;;;12.30;52.00;;;;;;4237864;27;20088;-68
2021/04/27 08:57:22;;;;;;;5.00;2.50;;;12.50;52.10;;;;;;4239937;27;20792;-72
2021/04/27 08:59:23;;;;;;;5.67;3.50;;;12.40;51.70;;;;;;4238380;27;20577;-67
2021/04/27 09:01:25;;;;;;;6.60;2.37;;;12.40;51.70;;;;;;4238851;28;20092;-63
2021/04/27 09:03:41;;;;;;;6.13;2.90;;;12.50;51.10;;;;;;4237633;28;20080;-66
2021/04/27 09:05:43;;;;;;;4.93;2.80;;;12.40;50.70;;;;;;4239432;28;20471;-69
2021/04/27 09:07:44;;;;;;;6.27;2.53;;;12.30;51.10;;;;;;4238717;28;20027;-71
2021/04/27 09:09:51;;;;;;;4.57;2.53;;;12.20;50.90;;;;;;4228932;27;20044;-67
2021/04/27 09:11:53;;;;;;;5.23;2.70;;;12.20;50.80;;;;;;4237168;28;20076;-71
2021/04/27 09:14:16;;;;;;;4.37;2.90;;;12.20;51.00;;;;;;4240138;28;20023;-71
2021/04/27 09:16:26;;;;;;;8.43;2.60;;;12.30;49.80;;;;;;4225276;28;20088;-62
2021/04/27 09:18:33;;;;;;;5.17;2.97;;;12.40;49.90;;;;;;4239492;27;20043;-62
2021/04/27 09:20:52;;;;;;;8.27;2.30;;;12.60;50.30;;;;;;4237726;27;20031;-62
2021/04/27 09:23:07;;;;;;;4.70;2.30;;;12.80;49.00;;;;;;4226283;28;20472;-64
2021/04/27 09:25:10;;;;;;;6.10;2.43;;;13.10;49.40;;;;;;4223938;28;20096;-62
2021/04/27 09:27:14;;;;;;;5.93;1.93;;;13.30;48.90;;;;;;4226083;28;20080;-63
2021/04/27 09:29:37;;;;;;;3.33;1.93;;;13.50;48.60;;;;;;4224710;28;20065;-63
2021/04/27 09:31:41;;;;;;;7.00;2.83;;;13.80;48.10;;;;;;4233050;27;20031;-63
2021/04/27 09:33:42;;;;;;;6.33;2.13;;;14.10;48.60;;;;;;4241553;27;20035;-65
2021/04/27 09:35:46;;;;;;;5.33;1.87;;;14.10;47.40;;;;;;4242341;27;20484;-65
2021/04/27 09:38:09;;;;;;;4.30;2.10;;;14.40;46.70;;;;;;4241666;27;20031;-61
2021/04/27 09:40:13;;;;;;;5.13;2.23;;;14.50;43.60;;;;;;4228241;27;20491;-63
2021/04/27 09:42:18;;;;;;;3.53;1.77;;;14.50;45.30;;;;;;4235690;27;20072;-61
2021/04/27 09:44:28;;;;;;;2.30;1.80;;;14.40;45.40;;;;;;4241163;27;20027;-61
2021/04/27 09:46:29;;;;;;;4.25;1.90;;;14.50;45.60;;;;;;4237895;27;20027;-63
2021/04/27 09:48:32;;;;;;;6.73;1.70;;;14.80;45.30;;;;;;4241864;27;20622;-65
2021/04/27 09:50:34;;;;;;;6.87;2.47;;;15.00;45.90;;;;;;4233221;27;20112;-66
2021/04/27 09:52:44;;;;;;;2.43;2.10;;;14.60;45.10;;;;;;4234908;27;20079;-61
2021/04/27 09:55:06;;;;;;;6.18;2.47;;;14.20;44.70;;;;;;4228538;27;20023;-63
2021/04/27 09:57:07;;;;;;;6.20;2.43;;;14.10;45.40;;;;;;4227022;27;20564;-60
2021/04/27 09:59:11;;;;;;;5.37;1.90;;;14.10;45.70;;;;;;4233149;27;20176;-61
2021/04/27 10:01:19;;;;;;;4.63;2.03;;;13.90;45.40;;;;;;4226149;28;20024;-60
2021/04/27 10:03:20;;;;;;;3.37;2.00;;;13.90;45.50;;;;;;4224614;27;20065;-62
2021/04/27 10:05:22;;;;;;;3.23;1.83;;;13.80;45.50;;;;;;4236311;27;20155;-64
2021/04/27 10:07:23;;;;;;;3.83;2.10;;;13.80;45.10;;;;;;4231124;27;20027;-72
2021/04/27 10:09:26;;;;;;;5.33;2.10;;;13.70;44.80;;;;;;4233075;27;20030;-73
2021/04/27 10:11:28;;;;;;;2.43;1.77;;;13.50;45.10;;;;;;4236072;27;20059;-62
2021/04/27 10:13:29;;;;;;;4.23;2.10;;;13.60;45.20;;;;;;4240927;27;20032;-63
2021/04/27 10:15:30;;;;;;;4.47;2.03;;;13.60;45.20;;;;;;4241780;27;20077;-65
2021/04/27 10:17:33;;;;;;;4.37;2.30;;;13.50;45.20;;;;;;4227441;27;20023;-67
2021/04/27 10:19:35;;;;;;;5.93;1.70;;;13.70;45.90;;;;;;4224694;28;20031;-62
2021/04/27 10:21:37;;;;;;;4.07;2.20;;;14.10;45.90;;;;;;4223161;28;20035;-68
2021/04/27 10:23:47;;;;;;;4.77;2.90;;;14.40;45.60;;;;;;4224736;28;20069;-65
2021/04/27 10:25:52;;;;;;;6.18;2.42;;;14.50;45.40;;;;;;4222460;28;20028;-63
2021/04/27 10:27:55;;;;;;;2.33;1.83;;;14.30;44.70;;;;;;4242014;27;20087;-64
2021/04/27 10:30:17;;;;;;;4.13;1.87;;;14.20;45.20;;;;;;4240529;27;20100;-61
2021/04/27 10:32:23;;;;;;;4.03;1.70;;;13.90;44.50;;;;;;4232749;27;20040;-70
2021/04/27 10:34:24;;;;;;;5.77;2.30;;;13.40;45.40;;;;;;4240367;27;20035;-66
2021/04/27 10:36:26;;;;;;;4.47;2.07;;;13.20;45.80;;;;;;4242026;27;20116;-65
2021/04/27 10:38:45;;;;;;;3.67;1.60;;;13.10;45.80;;;;;;4240412;27;20062;-65
2021/04/27 10:41:03;;;;;;;3.37;1.97;;;13.10;45.70;;;;;;4239773;27;20099;-61